Terminal Aerodrome Forecast
Issued by NWS

Home | Current Version | Previous Version | Text Only | Print | Product List | Glossary On
Versions: 1 2 3 4 5 6 7 8 9 10 11 12 13 14 15 16 17 18 19
821
FTUS43 KDVN 231735
TAFBRL
TAF
KBRL 231735Z 2318/2418 15013G17KT 6SM -RA BR OVC008
     FM232100 14014G19KT P6SM VCSH SCT008 BKN035
     FM240000 15014KT P6SM BKN040 WS019/20046KT
     FM240500 17013KT P6SM BKN040 WS019/22048KT
     FM241400 19015KT P6SM BKN040 WS020/24038KT=

USA.gov is the U.S. government's official web portal to all federal, state and local government web resources and services.